createdAt,value
2022-09-12T00:01:21.453Z,2.03
2022-09-12T00:03:55.383Z,4.05
2022-09-12T00:06:27.810Z,1.20
2022-09-12T00:08:57.022Z,1.42
2022-09-12T00:11:24.349Z,2.90
2022-09-12T00:13:51.945Z,2.75
2022-09-12T00:16:23.637Z,4.05
2022-09-12T00:18:51.464Z,1.70
2022-09-12T00:21:19.115Z,3.05
2022-09-12T00:23:46.725Z,4.70
2022-09-12T00:26:14.929Z,2.92
2022-09-12T00:28:42.196Z,4.30
2022-09-12T00:31:13.225Z,1.70
2022-09-12T00:33:41.342Z,2.97
2022-09-12T00:36:15.415Z,7.95
2022-09-12T00:38:44.555Z,3.53
2022-09-12T00:41:17.642Z,3.35
2022-09-12T00:43:49.830Z,2.55
2022-09-12T00:46:36.324Z,3.60
2022-09-12T00:49:26.088Z,3.45
2022-09-12T00:52:03.640Z,2.17
2022-09-12T00:54:36.314Z,4.97
2022-09-12T00:57:08.057Z,3.97
2022-09-12T00:59:41.555Z,1.40
2022-09-12T01:02:09.022Z,4.13
2022-09-12T01:04:38.760Z,1.80
2022-09-12T01:07:08.087Z,1.77
2022-09-12T01:09:37.389Z,2.65
2022-09-12T01:12:06.106Z,3.35
2022-09-12T01:14:33.357Z,3.72
2022-09-12T01:17:00.600Z,2.45
2022-09-12T01:20:19.443Z,2.20
2022-09-12T01:23:06.017Z,2.17
2022-09-12T01:25:59.406Z,4.97
2022-09-12T01:28:55.509Z,2.70
2022-09-12T01:31:33.648Z,2.00
2022-09-12T01:34:15.821Z,3.90
2022-09-12T01:37:14.505Z,2.35
2022-09-12T01:39:41.708Z,2.83
2022-09-12T01:42:23.976Z,2.28
2022-09-12T01:45:18.597Z,2.22
2022-09-12T01:47:50.267Z,3.28
2022-09-12T01:50:21.762Z,4.47
2022-09-12T01:52:58.865Z,2.63
2022-09-12T01:55:32.644Z,5.35
2022-09-12T01:58:12.656Z,3.50
2022-09-12T02:00:48.703Z,2.70
2022-09-12T02:03:20.752Z,2.38
2022-09-12T02:08:26.062Z,3.88
2022-09-12T02:11:01.358Z,3.83
2022-09-12T02:13:28.653Z,2.97
2022-09-12T02:16:03.704Z,3.40
2022-09-12T02:18:34.161Z,3.13
2022-09-12T02:21:03.777Z,3.30
2022-09-12T02:23:32.710Z,3.63
2022-09-12T02:26:18.768Z,5.63
2022-09-12T02:28:46.243Z,2.00
2022-09-12T02:31:35.491Z,2.63
2022-09-12T02:34:05.462Z,2.17
2022-09-12T02:36:59.441Z,1.83
2022-09-12T02:39:26.846Z,2.95
2022-09-12T02:42:01.047Z,2.10
2022-09-12T02:44:30.524Z,3.00
2022-09-12T02:47:05.660Z,3.28
2022-09-12T02:49:33.002Z,2.53
2022-09-12T02:52:02.329Z,2.40
2022-09-12T02:54:31.143Z,3.33
2022-09-12T02:56:58.284Z,2.90
2022-09-12T02:59:26.562Z,4.53
2022-09-12T03:02:12.743Z,2.65
2022-09-12T03:04:52.444Z,4.18
2022-09-12T03:07:43.254Z,2.45
2022-09-12T03:10:18.632Z,3.90
2022-09-12T03:13:15.100Z,3.83
2022-09-12T03:15:57.736Z,2.42
2022-09-12T03:18:51.797Z,3.53
2022-09-12T03:21:23.256Z,4.90
2022-09-12T03:24:13.564Z,3.72
2022-09-12T03:26:54.539Z,2.28
2022-09-12T03:29:24.804Z,2.67
2022-09-12T03:31:55.400Z,2.63
2022-09-12T03:34:24.211Z,2.10
2022-09-12T03:36:52.348Z,3.72
2022-09-12T03:39:20.441Z,5.05
2022-09-12T03:41:47.820Z,2.10
2022-09-12T03:44:14.949Z,2.78
2022-09-12T03:46:42.370Z,2.55
2022-09-12T03:49:10.832Z,2.78
2022-09-12T03:51:39.364Z,3.15
2022-09-12T03:54:07.032Z,2.80
2022-09-12T03:56:35.349Z,4.97
2022-09-12T03:59:05.562Z,3.50
2022-09-12T04:01:33.104Z,3.88
2022-09-12T04:04:00.360Z,2.97
2022-09-12T04:06:27.664Z,2.33
2022-09-12T04:08:55.440Z,3.40
2022-09-12T04:11:23.347Z,2.78
2022-09-12T04:13:50.968Z,3.47
2022-09-12T04:16:19.038Z,3.10
2022-09-12T04:18:47.089Z,1.40
2022-09-12T04:21:18.016Z,3.10
2022-09-12T04:23:45.909Z,2.30
2022-09-12T04:26:14.214Z,1.80
2022-09-12T04:28:42.086Z,3.53
2022-09-12T04:31:13.462Z,7.38
2022-09-12T04:33:40.612Z,2.88
2022-09-12T04:36:10.646Z,3.70
2022-09-12T04:38:39.105Z,3.92
2022-09-12T04:41:13.401Z,2.42
2022-09-12T04:43:42.520Z,3.60
2022-09-12T04:46:12.279Z,4.35
2022-09-12T04:48:39.734Z,2.78
2022-09-12T04:51:13.718Z,2.88
2022-09-12T04:53:42.471Z,3.28
2022-09-12T04:56:11.743Z,1.98
2022-09-12T04:58:39.098Z,1.77
2022-09-12T05:01:10.803Z,2.53
2022-09-12T05:03:39.667Z,3.17
2022-09-12T05:06:08.753Z,3.30
2022-09-12T05:08:36.266Z,2.72
2022-09-12T05:11:10.551Z,3.15
2022-09-12T05:13:38.961Z,6.15
2022-09-12T05:16:07.905Z,3.58
2022-09-12T05:18:36.524Z,1.25
2022-09-12T05:21:07.002Z,1.48
2022-09-12T05:23:34.298Z,3.55
2022-09-12T05:26:03.151Z,3.53
2022-09-12T05:28:36.236Z,1.83
2022-09-12T05:31:15.619Z,2.33
2022-09-12T05:33:46.252Z,2.63
2022-09-12T05:36:22.646Z,2.50
2022-09-12T05:38:50.486Z,2.03
2022-09-12T05:41:24.978Z,2.95
2022-09-12T05:43:58.007Z,4.82
2022-09-12T05:46:27.703Z,3.35
2022-09-12T05:48:56.689Z,2.75
2022-09-12T05:51:26.772Z,3.70
2022-09-12T05:53:57.078Z,2.47
2022-09-12T05:56:30.254Z,4.60
2022-09-12T05:59:02.666Z,3.13
2022-09-12T06:01:31.625Z,1.20
2022-09-12T06:04:01.191Z,2.63
2022-09-12T06:06:29.933Z,4.70
2022-09-12T06:09:00.328Z,1.17
2022-09-12T06:11:30.214Z,4.03
2022-09-12T06:13:59.058Z,3.13
2022-09-12T06:16:29.025Z,3.63
2022-09-12T06:19:01.735Z,1.90
2022-09-12T06:21:31.404Z,0.75
2022-09-12T06:23:59.227Z,2.80
2022-09-12T06:26:28.064Z,1.88
2022-09-12T06:28:57.528Z,1.52
2022-09-12T06:31:30.732Z,2.33
2022-09-12T06:34:01.057Z,1.30
2022-09-12T06:36:31.497Z,6.57
2022-09-12T06:39:01.659Z,1.05
2022-09-12T06:41:31.327Z,3.92
2022-09-12T06:43:59.677Z,2.28
2022-09-12T06:46:27.920Z,1.80
2022-09-12T06:49:00.664Z,1.10
2022-09-12T06:51:28.846Z,1.20
2022-09-12T06:53:57.312Z,1.33
2022-09-12T06:56:27.193Z,1.88
2022-09-12T06:58:59.343Z,3.15
2022-09-12T07:01:29.222Z,1.00
2022-09-12T07:04:01.952Z,2.70
2022-09-12T07:06:35.154Z,1.55
2022-09-12T07:09:04.474Z,1.52
2022-09-12T07:11:34.668Z,1.50
2022-09-12T07:14:03.619Z,1.33
2022-09-12T07:16:32.736Z,2.92
2022-09-12T07:19:02.227Z,4.13
2022-09-12T07:21:30.048Z,2.15
2022-09-12T07:24:00.604Z,2.20
2022-09-12T07:29:08.275Z,2.65
2022-09-12T07:31:45.559Z,1.90
2022-09-12T07:34:14.006Z,0.77
2022-09-12T07:36:41.170Z,1.45
2022-09-12T07:39:08.627Z,1.13
2022-09-12T07:41:35.834Z,1.75
2022-09-12T07:44:03.593Z,0.70
2022-09-12T07:46:31.555Z,2.17
2022-09-12T07:49:01.305Z,2.13
2022-09-12T07:51:30.462Z,2.22
2022-09-12T07:53:58.491Z,1.95
2022-09-12T07:56:32.769Z,0.95
2022-09-12T07:59:02.082Z,1.80
2022-09-12T08:01:29.874Z,1.05
2022-09-12T08:03:59.462Z,2.65
2022-09-12T08:06:30.363Z,1.77
2022-09-12T08:08:59.037Z,1.48
2022-09-12T08:11:28.974Z,0.77
2022-09-12T08:13:58.058Z,2.22
2022-09-12T08:16:27.911Z,1.05
2022-09-12T08:18:55.616Z,0.85
2022-09-12T08:21:25.538Z,1.33
2022-09-12T08:23:54.690Z,3.10
2022-09-12T08:26:22.264Z,1.42
2022-09-12T08:28:49.649Z,2.05
2022-09-12T08:31:20.227Z,3.00
2022-09-12T08:33:47.942Z,3.17
2022-09-12T08:36:18.194Z,1.75
2022-09-12T08:38:47.516Z,5.43
2022-09-12T08:41:38.723Z,4.25
2022-09-12T08:45:00.212Z,2.50
2022-09-12T08:47:41.894Z,3.45
2022-09-12T08:50:11.946Z,2.75
2022-09-12T08:53:26.760Z,4.55
2022-09-12T08:55:58.811Z,0.80
2022-09-12T08:58:29.127Z,1.15
2022-09-12T09:01:02.223Z,2.23
2022-09-12T09:03:35.457Z,3.00
2022-09-12T09:06:09.002Z,2.53
2022-09-12T09:08:48.021Z,0.88
2022-09-12T09:12:06.840Z,2.53
2022-09-12T09:14:49.228Z,1.52
2022-09-12T09:17:31.810Z,2.22
2022-09-12T09:20:22.946Z,2.70
2022-09-12T09:22:54.708Z,1.80
2022-09-12T09:25:28.340Z,2.22
2022-09-12T09:28:11.590Z,0.50
2022-09-12T09:30:42.402Z,2.42
2022-09-12T09:33:20.524Z,3.85
2022-09-12T09:35:56.723Z,2.45
2022-09-12T09:38:46.375Z,2.58
2022-09-12T09:41:36.254Z,1.35
2022-09-12T09:44:04.561Z,2.85
2022-09-12T09:46:32.473Z,1.05
2022-09-12T09:49:03.390Z,4.20
2022-09-12T09:51:39.910Z,8.57
2022-09-12T09:54:23.654Z,2.50
2022-09-12T09:56:51.252Z,1.88
2022-09-12T09:59:31.132Z,1.05
2022-09-12T10:02:23.255Z,1.38
2022-09-12T10:04:57.690Z,1.77
2022-09-12T10:07:26.688Z,5.30
2022-09-12T10:10:16.712Z,4.75
2022-09-12T10:12:44.496Z,3.20
2022-09-12T10:15:29.549Z,5.70
2022-09-12T10:17:57.175Z,5.97
2022-09-12T10:20:36.557Z,1.40
2022-09-12T10:23:33.826Z,2.25
2022-09-12T10:26:05.214Z,0.75
2022-09-12T10:31:04.375Z,1.52
2022-09-12T10:33:40.434Z,2.10
2022-09-12T10:36:07.989Z,2.38
2022-09-12T10:38:35.150Z,2.97
2022-09-12T10:41:11.449Z,2.00
2022-09-12T10:43:41.477Z,2.35
2022-09-12T10:46:14.737Z,3.60
2022-09-12T10:48:44.041Z,3.05
2022-09-12T10:51:28.908Z,1.95
2022-09-12T10:54:02.241Z,3.22
2022-09-12T10:56:34.981Z,2.13
2022-09-12T10:59:24.439Z,2.45
2022-09-12T11:02:27.396Z,2.05
2022-09-12T11:05:11.743Z,12.20
2022-09-12T11:07:53.348Z,1.90
2022-09-12T11:10:47.685Z,2.42
2022-09-12T11:13:52.327Z,3.22
2022-09-12T11:16:49.063Z,13.48
2022-09-12T11:19:53.637Z,3.55
2022-09-12T11:22:32.065Z,7.30
2022-09-12T11:25:28.246Z,1.45
2022-09-12T11:28:26.017Z,0.70
2022-09-12T11:31:11.610Z,1.58
2022-09-12T11:33:46.896Z,2.53
2022-09-12T11:36:41.614Z,1.50
2022-09-12T11:39:16.520Z,2.13
2022-09-12T11:41:48.425Z,2.35
2022-09-12T11:44:50.463Z,1.90
2022-09-12T11:47:18.767Z,5.05
2022-09-12T11:49:53.081Z,3.40
2022-09-12T11:52:23.925Z,1.73
2022-09-12T11:54:57.920Z,1.73
2022-09-12T11:57:25.057Z,1.42
2022-09-12T12:00:15.258Z,2.58
2022-09-12T12:03:04.874Z,1.08
2022-09-12T12:05:41.184Z,1.08
2022-09-12T12:08:09.384Z,1.40
2022-09-12T12:10:50.019Z,6.95
2022-09-12T12:13:32.218Z,1.45
2022-09-12T12:16:04.980Z,1.45
2022-09-12T12:18:34.361Z,1.80
2022-09-12T12:21:35.083Z,1.27
2022-09-12T12:24:08.232Z,1.20
2022-09-12T12:26:38.873Z,0.45
2022-09-12T12:29:18.501Z,1.67
2022-09-12T12:32:20.345Z,1.05
2022-09-12T12:34:48.222Z,1.27
2022-09-12T12:37:23.027Z,1.88
2022-09-12T12:40:01.174Z,2.40
2022-09-12T12:42:35.506Z,2.30
2022-09-12T12:45:09.584Z,1.20
2022-09-12T12:47:43.181Z,4.40
2022-09-12T12:50:10.350Z,0.70
2022-09-12T12:52:46.464Z,0.70
2022-09-12T12:55:35.404Z,2.40
2022-09-12T12:58:05.850Z,3.92
2022-09-12T13:00:40.472Z,5.82
2022-09-12T13:03:07.548Z,3.47
2022-09-12T13:05:48.646Z,2.05
2022-09-12T13:08:18.885Z,2.78
2022-09-12T13:10:57.029Z,1.63
2022-09-12T13:13:32.184Z,1.63
2022-09-12T13:15:59.828Z,2.35
2022-09-12T13:18:32.845Z,1.70
2022-09-12T13:21:11.904Z,7.60
2022-09-12T13:23:39.526Z,8.95
2022-09-12T13:26:25.695Z,3.25
2022-09-12T13:29:19.589Z,3.85
2022-09-12T13:31:52.875Z,2.63
2022-09-12T13:34:27.067Z,1.85
2022-09-12T13:37:07.606Z,17.13
2022-09-12T13:40:08.780Z,0.93
2022-09-12T13:42:45.190Z,2.40
2022-09-12T13:45:22.800Z,1.35
2022-09-12T13:48:25.341Z,1.63
2022-09-12T13:50:59.975Z,2.13
2022-09-12T13:53:31.993Z,4.65
2022-09-12T13:56:00.158Z,1.48
2022-09-12T13:58:30.486Z,1.85
2022-09-12T14:01:04.691Z,1.50
2022-09-12T14:03:58.979Z,2.80
2022-09-12T14:06:27.826Z,1.52
2022-09-12T14:09:01.593Z,3.05
2022-09-12T14:11:33.899Z,1.33
2022-09-12T14:14:06.612Z,3.50
2022-09-12T14:16:40.097Z,3.50
2022-09-12T14:19:10.352Z,6.82
2022-09-12T14:21:38.564Z,1.88
2022-09-12T14:24:08.660Z,11.93
2022-09-12T14:26:38.626Z,3.47
2022-09-12T14:29:07.715Z,2.83
2022-09-12T14:31:38.139Z,2.67
2022-09-12T14:34:09.757Z,0.60
2022-09-12T14:39:38.028Z,1.02
2022-09-12T14:42:18.469Z,1.05
2022-09-12T14:45:14.242Z,1.73
2022-09-12T14:47:44.506Z,1.60
2022-09-12T14:50:17.857Z,2.42
2022-09-12T14:52:45.413Z,1.90
2022-09-12T14:55:16.228Z,1.10
2022-09-12T14:57:44.636Z,1.95
2022-09-12T15:00:12.039Z,2.67
2022-09-12T15:02:44.528Z,1.77
2022-09-12T15:05:11.684Z,1.70
2022-09-12T15:07:54.480Z,2.65
2022-09-12T15:10:48.367Z,2.90
2022-09-12T15:13:19.707Z,1.80
2022-09-12T15:15:49.336Z,3.03
2022-09-12T15:18:18.808Z,1.65
2022-09-12T15:20:50.288Z,1.73
2022-09-12T15:25:44.648Z,2.20
2022-09-12T15:28:20.817Z,2.92
2022-09-12T15:30:50.612Z,2.20
2022-09-12T15:33:19.632Z,2.85
2022-09-12T15:35:47.171Z,1.63
2022-09-12T15:38:14.696Z,1.55
2022-09-12T15:40:42.402Z,0.95
2022-09-12T15:43:13.380Z,3.25
2022-09-12T15:45:43.672Z,4.32
2022-09-12T15:48:10.910Z,0.90
2022-09-12T15:50:38.021Z,1.80
2022-09-12T15:53:05.371Z,1.90
2022-09-12T15:55:33.033Z,2.38
2022-09-12T15:58:04.872Z,1.30
2022-09-12T16:00:35.660Z,1.98
2022-09-12T16:03:02.921Z,3.67
2022-09-12T16:05:30.160Z,1.27
2022-09-12T16:07:57.801Z,0.98
2022-09-12T16:10:29.007Z,2.08
2022-09-12T16:12:56.484Z,1.30
2022-09-12T16:15:25.230Z,3.33
2022-09-12T16:17:53.080Z,1.42
2022-09-12T16:20:22.270Z,4.22
2022-09-12T16:22:49.749Z,1.17
2022-09-12T16:25:17.500Z,1.85
2022-09-12T16:27:44.892Z,2.45
2022-09-12T16:30:13.228Z,1.75
2022-09-12T16:32:40.607Z,2.13
2022-09-12T16:35:08.927Z,2.20
2022-09-12T16:37:36.589Z,2.67
2022-09-12T16:40:05.320Z,3.15
2022-09-12T16:42:32.967Z,1.90
2022-09-12T16:45:00.331Z,2.97
2022-09-12T16:47:27.512Z,1.50
2022-09-12T16:49:54.829Z,3.00
2022-09-12T16:52:22.333Z,0.88
2022-09-12T16:54:49.474Z,2.40
2022-09-12T16:57:16.709Z,1.63
2022-09-12T16:59:44.630Z,1.50
2022-09-12T17:02:13.994Z,1.60
2022-09-12T17:04:41.579Z,2.17
2022-09-12T17:07:09.556Z,1.20
2022-09-12T17:09:36.856Z,2.03
2022-09-12T17:12:04.507Z,1.92
2022-09-12T17:14:31.975Z,3.90
2022-09-12T17:16:59.148Z,3.70
2022-09-12T17:19:29.744Z,4.22
2022-09-12T17:21:57.891Z,3.42
2022-09-12T17:24:25.923Z,3.83
2022-09-12T17:26:53.937Z,2.28
2022-09-12T17:29:21.378Z,2.97
2022-09-12T17:31:49.460Z,4.13
2022-09-12T17:34:17.811Z,4.35
2022-09-12T17:36:46.777Z,3.85
2022-09-12T17:39:15.468Z,2.25
2022-09-12T17:41:43.470Z,5.07
2022-09-12T17:44:15.525Z,6.45
2022-09-12T17:46:44.407Z,5.13
2022-09-12T17:49:15.144Z,3.70
2022-09-12T17:51:44.278Z,5.28
2022-09-12T17:54:16.392Z,6.47
2022-09-12T17:56:46.026Z,4.10
2022-09-12T17:59:19.281Z,3.25
2022-09-12T18:02:22.336Z,3.75
2022-09-12T18:04:50.780Z,3.42
2022-09-12T18:07:19.995Z,8.25
2022-09-12T18:09:48.129Z,4.40
2022-09-12T18:12:16.260Z,4.88
2022-09-12T18:14:44.159Z,4.72
2022-09-12T18:17:11.633Z,3.20
2022-09-12T18:19:38.836Z,4.72
2022-09-12T18:22:06.979Z,3.78
2022-09-12T18:24:34.266Z,3.33
2022-09-12T18:27:03.923Z,4.82
2022-09-12T18:29:31.518Z,6.03
2022-09-12T18:31:59.685Z,5.65
2022-09-12T18:34:27.297Z,7.30
2022-09-12T18:36:55.252Z,5.53
2022-09-12T18:39:27.429Z,9.32
2022-09-12T18:41:55.376Z,6.13
2022-09-12T18:44:22.965Z,6.10
2022-09-12T18:46:50.640Z,5.07
2022-09-12T18:49:18.544Z,4.90
2022-09-12T18:51:46.074Z,4.30
2022-09-12T18:54:15.680Z,3.53
2022-09-12T18:56:44.097Z,5.45
2022-09-12T18:59:14.199Z,6.93
2022-09-12T19:01:43.035Z,5.93
2022-09-12T19:04:11.977Z,6.15
2022-09-12T19:06:42.145Z,4.50
2022-09-12T19:09:11.622Z,4.28
2022-09-12T19:11:42.462Z,4.90
2022-09-12T19:14:09.877Z,6.65
2022-09-12T19:16:37.401Z,4.75
2022-09-12T19:19:04.909Z,4.38
2022-09-12T19:21:33.604Z,4.68
2022-09-12T19:24:03.980Z,4.32
2022-09-12T19:26:32.116Z,7.28
2022-09-12T19:29:01.054Z,5.05
2022-09-12T19:31:28.830Z,8.55
2022-09-12T19:34:04.724Z,4.80
2022-09-12T19:36:47.765Z,7.43
2022-09-12T19:39:17.102Z,11.70
2022-09-12T19:41:45.134Z,6.45
2022-09-12T19:44:12.555Z,9.05
2022-09-12T19:46:40.573Z,7.78
2022-09-12T19:49:07.930Z,5.93
2022-09-12T19:51:35.218Z,6.68
2022-09-12T19:54:03.099Z,5.55
2022-09-12T19:56:30.386Z,5.78
2022-09-12T19:58:57.693Z,6.13
2022-09-12T20:01:30.180Z,5.93
2022-09-12T20:03:58.282Z,7.68
2022-09-12T20:06:26.319Z,5.32
2022-09-12T20:08:54.259Z,5.82
2022-09-12T20:11:23.740Z,7.43
2022-09-12T20:13:51.541Z,5.22
2022-09-12T20:16:25.530Z,7.10
2022-09-12T20:18:55.305Z,6.68
2022-09-12T20:21:31.418Z,5.13
2022-09-12T20:24:05.359Z,6.38
2022-09-12T20:26:33.463Z,6.90
2022-09-12T20:29:00.856Z,5.15
2022-09-12T20:31:28.840Z,8.35
2022-09-12T20:33:56.306Z,7.00
2022-09-12T20:36:23.900Z,7.18
2022-09-12T20:38:53.294Z,5.15
2022-09-12T20:41:21.494Z,6.55
2022-09-12T20:43:53.158Z,9.40
2022-09-12T20:46:24.710Z,6.00
2022-09-12T20:48:52.650Z,5.90
2022-09-12T20:51:21.690Z,5.88
2022-09-12T20:53:53.392Z,5.80
2022-09-12T20:56:21.461Z,6.93
2022-09-12T20:58:48.795Z,6.70
2022-09-12T21:01:16.856Z,9.50
2022-09-12T21:03:44.849Z,6.93
2022-09-12T21:06:13.808Z,7.90
2022-09-12T21:08:41.074Z,5.10
2022-09-12T21:11:08.911Z,5.70
2022-09-12T21:13:37.362Z,5.50
2022-09-12T21:16:07.261Z,5.68
2022-09-12T21:18:35.546Z,8.05
2022-09-12T21:21:03.900Z,5.38
2022-09-12T21:23:32.274Z,7.82
2022-09-12T21:26:01.448Z,7.22
2022-09-12T21:28:28.904Z,9.20
2022-09-12T21:30:56.251Z,7.47
2022-09-12T21:33:23.967Z,9.00
2022-09-12T21:35:51.313Z,8.50
2022-09-12T21:38:19.969Z,8.55
2022-09-12T21:40:47.768Z,11.02
2022-09-12T21:43:15.526Z,8.95
2022-09-12T21:45:42.679Z,9.70
2022-09-12T21:48:10.026Z,9.27
2022-09-12T21:50:37.183Z,8.52
2022-09-12T21:53:04.346Z,10.38
2022-09-12T21:55:31.840Z,10.68
2022-09-12T21:57:59.188Z,7.97
2022-09-12T22:00:26.500Z,9.90
2022-09-12T22:02:53.886Z,8.75
2022-09-12T22:05:22.358Z,9.15
2022-09-12T22:07:49.564Z,12.88
2022-09-12T22:10:17.066Z,13.55
2022-09-12T22:12:46.457Z,12.90
2022-09-12T22:18:02.017Z,13.07
2022-09-12T22:20:29.178Z,12.73
2022-09-12T22:23:14.964Z,11.88
2022-09-12T22:25:42.436Z,14.18
2022-09-12T22:28:09.870Z,13.50
2022-09-12T22:30:37.613Z,10.55
2022-09-12T22:33:04.958Z,13.40
2022-09-12T22:35:32.122Z,13.73
2022-09-12T22:37:59.484Z,13.50
2022-09-12T22:40:26.702Z,13.88
2022-09-12T22:42:55.133Z,11.82
2022-09-12T22:45:22.275Z,15.40
2022-09-12T22:47:49.602Z,15.27
2022-09-12T22:50:16.834Z,15.65
2022-09-12T22:52:44.494Z,18.58
2022-09-12T22:55:11.735Z,14.85
2022-09-12T22:57:39.914Z,14.93
2022-09-12T23:00:10.757Z,15.57
2022-09-12T23:02:38.238Z,16.70
2022-09-12T23:05:06.206Z,15.02
2022-09-12T23:07:33.737Z,18.02
2022-09-12T23:10:01.128Z,15.70
2022-09-12T23:12:28.568Z,15.63
2022-09-12T23:14:55.703Z,15.45
2022-09-12T23:17:23.082Z,16.80
2022-09-12T23:19:50.216Z,15.30
2022-09-12T23:22:17.506Z,17.58
2022-09-12T23:24:44.935Z,16.98
2022-09-12T23:27:12.092Z,14.43
2022-09-12T23:29:39.270Z,17.48
2022-09-12T23:32:06.863Z,13.93
2022-09-12T23:34:34.272Z,16.05
2022-09-12T23:37:01.505Z,15.77
2022-09-12T23:39:28.989Z,14.50
2022-09-12T23:41:56.129Z,15.13
2022-09-12T23:44:23.279Z,14.20
2022-09-12T23:46:50.715Z,14.38
2022-09-12T23:49:17.919Z,13.60
2022-09-12T23:51:45.069Z,13.60
2022-09-12T23:54:12.408Z,12.25
2022-09-12T23:56:39.699Z,13.55
2022-09-12T23:59:06.819Z,13.93
